Betsy Ross — WDI9782 — position and weather

sailwx.info

Track history (hours):
 
Tides and Currents Weather Stations Pressure Air Temp Water Temp Dewpoint Dewpoint Depression Visibility Wind Speed Wind Dir Waves Ship Positions

Betsy Ross

Owner: Port Imperial Ferry Corporation, Weehawken, NJ. More information available from US FCC via Universal Licensing System and Coast Guard Vessel Documentation Center.

Last reported at 2018-Jul-20 21:57 UTC. Time now 2018-Jul-21 03:23 UTC.
Position N 40°32' W 074°03'.

Length 33 m; draft 2 m.

Type: Passenger vessel. MMSI: 367752090.

Date/timePositionNaut miles runAvg speedWind from/ knotsBaromVisibWave heightAir tempDewpointWater temp
2018-Jul-20 21:57N 40°32' W 074°03'1124.1
2018-Jul-20 21:31N 40°42' W 074°00'4 8.1
2018-Jul-20 21:00N 40°39' W 074°03'7 9.1
2018-Jul-20 20:14N 40°31' W 074°04'627.8
2018-Jul-20 20:01N 40°37' W 074°03'611.5
2018-Jul-20 19:31N 40°43' W 074°01'0 1.0
2018-Jul-20 19:01N 40°43' W 074°01'1211.6
2018-Jul-20 17:59N 40°31' W 074°04'1224.2
2018-Jul-20 17:30N 40°42' W 074°00'3 5.3
2018-Jul-20 16:51N 40°46' W 074°00'1 2.0
2018-Jul-20 16:30N 40°46' W 074°01'0 0.0
2018-Jul-20 16:00N 40°46' W 074°01'0 0.0
2018-Jul-20 15:27N 40°46' W 074°01'0 0.0
2018-Jul-20 14:58N 40°46' W 074°01'1 1.6
2018-Jul-20 14:30N 40°46' W 074°00'715.0
2018-Jul-20 14:00N 40°38' W 074°03'7 8.1
2018-Jul-20 13:10N 40°32' W 074°03'529.7
2018-Jul-20 13:00N 40°36' W 074°03'815.4
2018-Jul-20 12:31N 40°44' W 074°01'612.4
2018-Jul-20 12:01N 40°38' W 074°03'1216.6
2018-Jul-20 11:18N 40°26' W 074°05'725.8
2018-Jul-20 11:00N 40°33' W 074°02'918.3
2018-Jul-20 10:30N 40°42' W 074°00'1122.2
2018-Jul-20 10:00N 40°31' W 074°04'1 0.1
2018-Jul-19 21:55N 40°33' W 074°03'1023.5
2018-Jul-19 21:30N 40°42' W 074°00'4 7.8
2018-Jul-19 21:01N 40°39' W 074°03'1012.9
2018-Jul-19 20:16N 40°30' W 074°04'728.4
2018-Jul-19 20:00N 40°37' W 074°03'612.5
2018-Jul-19 19:30N 40°43' W 074°01'3 6.6
2018-Jul-19 19:00N 40°46' W 074°01'0 0.0
2018-Jul-19 18:28N 40°46' W 074°01'0 0.0
2018-Jul-19 18:00N 40°46' W 074°01'0 0.0
2018-Jul-19 17:30N 40°46' W 074°01'0 0.0
2018-Jul-19 17:00N 40°46' W 074°01'0 0.0
2018-Jul-19 16:27N 40°46' W 074°01'0 0.0
2018-Jul-19 16:00N 40°46' W 074°01'0 0.0
2018-Jul-19 15:30N 40°46' W 074°01'0 0.0
2018-Jul-19 14:59N 40°46' W 074°01'2 3.9
2018-Jul-19 14:31N 40°44' W 074°01'13 9.5
2018-Jul-19 13:10N 40°32' W 074°03'530.0
2018-Jul-19 13:00N 40°37' W 074°03'612.8
2018-Jul-19 12:31N 40°43' W 074°01'611.2
2018-Jul-19 12:01N 40°38' W 074°03'6 6.4
2018-Jul-19 11:04N 40°32' W 074°03'230.0
2018-Jul-19 11:00N 40°34' W 074°03'917.4
2018-Jul-19 10:31N 40°42' W 074°00'10 0.8
2018-Jul-18 21:55N 40°32' W 074°03'1024.6
2018-Jul-18 21:30N 40°42' W 074°00'4 7.9
2018-Jul-18 21:01N 40°39' W 074°03'7 7.8
2018-Jul-18 20:09N 40°32' W 074°03'429.4
2018-Jul-18 20:01N 40°36' W 074°03'713.5
2018-Jul-18 19:31N 40°43' W 074°01'3 5.6
2018-Jul-18 18:56N 40°46' W 074°01'0 0.0
2018-Jul-18 18:30N 40°46' W 074°01'0 0.0
2018-Jul-18 17:59N 40°46' W 074°01'0 0.0
2018-Jul-18 17:30N 40°46' W 074°01'0 0.0
2018-Jul-18 17:00N 40°46' W 074°01'0 0.0
2018-Jul-18 16:29N 40°46' W 074°01'0 0.0
2018-Jul-18 16:00N 40°46' W 074°01'0 0.0
2018-Jul-18 15:29N 40°46' W 074°01'0 0.0
2018-Jul-18 15:00N 40°46' W 074°01'0 0.0
2018-Jul-18 14:30N 40°46' W 074°01'0 0.0
2018-Jul-18 13:30N 40°46' W 074°01'3 6.7
2018-Jul-18 13:00N 40°43' W 074°01'1 2.6
2018-Jul-18 12:31N 40°44' W 074°01'713.2
2018-Jul-18 12:00N 40°38' W 074°03'5 5.5
2018-Jul-18 11:02N 40°32' W 074°03'1019.4
2018-Jul-18 10:30N 40°42' W 074°00'12 1.0
2018-Jul-17 21:59N 40°31' W 074°04'1225.1
2018-Jul-17 21:31N 40°42' W 074°00'4 7.7
2018-Jul-17 21:00N 40°39' W 074°03'8 9.3
2018-Jul-17 20:11N 40°31' W 074°03'529.8
2018-Jul-17 20:00N 40°37' W 074°03'713.2
2018-Jul-17 19:30N 40°43' W 074°01'3 5.0
2018-Jul-17 18:56N 40°46' W 074°00'0 0.9
2018-Jul-17 18:29N 40°46' W 074°01'0 0.0
2018-Jul-17 15:50N 40°46' W 074°01'0 0.0
2018-Jul-17 15:16N 40°46' W 074°01'0 0.0
2018-Jul-17 14:57N 40°46' W 074°01'0 0.0
2018-Jul-17 14:29N 40°46' W 074°01'0 0.0
2018-Jul-17 14:00N 40°46' W 074°01'0 0.0
2018-Jul-17 13:28N 40°46' W 074°01'4 7.7
2018-Jul-17 13:01N 40°43' W 074°02'1 1.9
2018-Jul-17 12:31N 40°44' W 074°01'611.5
2018-Jul-17 12:01N 40°38' W 074°03'6 6.5
2018-Jul-17 11:03N 40°32' W 074°03'129.9
2018-Jul-17 11:01N 40°33' W 074°02'918.6
2018-Jul-17 10:31N 40°42' W 074°00'13 1.1
2018-Jul-16 22:07N 40°29' W 074°04'328.0
2018-Jul-16 22:00N 40°32' W 074°04'1021.0
2018-Jul-16 21:31N 40°42' W 074°00'4 7.4
2018-Jul-16 21:00N 40°39' W 074°03'7 8.6
2018-Jul-16 20:10N 40°32' W 074°03'529.9
2018-Jul-16 20:01N 40°37' W 074°03'713.2
2018-Jul-16 19:30N 40°43' W 074°01'3 5.4
2018-Jul-16 19:00N 40°46' W 074°00'1 1.1
2018-Jul-16 18:30N 40°46' W 074°01'0 0.0
2018-Jul-16 18:00N 40°46' W 074°01'0 0.0
2018-Jul-16 17:29N 40°46' W 074°01'0 0.0
2018-Jul-16 16:59N 40°46' W 074°01'0 0.0
2018-Jul-16 16:30N 40°46' W 074°01'0 0.0
2018-Jul-16 16:00N 40°46' W 074°01'1 1.4
2018-Jul-16 15:28N 40°46' W 074°00'1 1.6
2018-Jul-16 15:00N 40°46' W 074°01'3 6.1
2018-Jul-16 14:31N 40°43' W 074°02'713.0
2018-Jul-16 14:00N 40°37' W 074°03'5 6.8
2018-Jul-16 13:16N 40°32' W 074°04'727.6
2018-Jul-16 13:01N 40°39' W 074°03'4 8.3
2018-Jul-16 12:31N 40°43' W 074°02'5 9.5
2018-Jul-16 12:00N 40°38' W 074°03'6 6.6
2018-Jul-16 11:03N 40°32' W 074°03'128.6
2018-Jul-16 11:00N 40°33' W 074°02'918.4
2018-Jul-16 10:31N 40°42' W 074°00'  
2018-Jul-13 22:00N 40°31' W 074°04'1224.1
2018-Jul-13 21:30N 40°42' W 074°00'510.1
2018-Jul-13 21:00N 40°38' W 074°03'6 8.1
2018-Jul-13 20:13N 40°31' W 074°03'629.7
2018-Jul-13 20:00N 40°38' W 074°03'611.5
2018-Jul-13 19:31N 40°43' W 074°01'0 0.6
2018-Jul-13 19:01N 40°43' W 074°01'1312.6
2018-Jul-13 17:58N 40°30' W 074°04'1327.0
2018-Jul-13 17:30N 40°42' W 074°00'4 4.1
2018-Jul-13 16:38N 40°46' W 074°01'1 4.1
2018-Jul-13 16:30N 40°46' W 074°01'0 0.0
2018-Jul-13 16:00N 40°46' W 074°01'0 0.0
2018-Jul-13 15:30N 40°46' W 074°01'0 0.0
2018-Jul-13 14:58N 40°46' W 074°01'8 8.8
2018-Jul-13 14:00N 40°38' W 074°03'914.3
2018-Jul-13 13:21N 40°29' W 074°04'1029.0
2018-Jul-13 13:01N 40°38' W 074°03'815.2
2018-Jul-13 12:31N 40°46' W 074°00'714.3
2018-Jul-13 12:01N 40°39' W 074°02'1011.6
2018-Jul-13 11:09N 40°29' W 074°05'430.3
2018-Jul-13 11:00N 40°33' W 074°04'1019.2
2018-Jul-13 10:31N 40°42' W 074°01'1121.7
2018-Jul-13 10:01N 40°32' W 074°04'4 0.3
2018-Jul-12 22:08N 40°28' W 074°04'427.8
2018-Jul-12 22:00N 40°32' W 074°04'1122.3
2018-Jul-12 21:30N 40°42' W 074°00'3 6.9
2018-Jul-12 21:01N 40°39' W 074°03'1115.3
2018-Jul-12 20:16N 40°28' W 074°05'829.6
2018-Jul-12 20:01N 40°36' W 074°03'714.7
2018-Jul-12 19:30N 40°43' W 074°01'3 4.5
2018-Jul-12 18:55N 40°46' W 074°00'1 1.2
2018-Jul-12 18:27N 40°46' W 074°01'0 0.0
2018-Jul-12 17:59N 40°46' W 074°01'0 0.0
2018-Jul-12 17:30N 40°46' W 074°01'0 0.0
2018-Jul-12 16:59N 40°46' W 074°01'0 0.0
2018-Jul-12 16:30N 40°46' W 074°01'0 0.0
2018-Jul-12 16:00N 40°46' W 074°01'0 0.0
2018-Jul-12 15:30N 40°46' W 074°01'0 0.0
2018-Jul-12 15:00N 40°46' W 074°01'1 3.0
2018-Jul-12 14:31N 40°45' W 074°01'815.1
2018-Jul-12 14:00N 40°37' W 074°03'812.3
2018-Jul-12 13:19N 40°29' W 074°04'929.1
2018-Jul-12 13:01N 40°38' W 074°03'510.0
2018-Jul-12 12:31N 40°43' W 074°02'5 9.1
2018-Jul-12 12:00N 40°38' W 074°03'6 6.7
2018-Jul-12 11:06N 40°32' W 074°03'328.8
2018-Jul-12 11:01N 40°35' W 074°03'815.0
2018-Jul-12 10:30N 40°42' W 074°00'1223.5
2018-Jul-12 10:00N 40°31' W 074°03'2 0.1
2018-Jul-11 21:57N 40°32' W 074°04'1023.4
2018-Jul-11 21:30N 40°42' W 074°00'3 6.2
2018-Jul-11 21:00N 40°39' W 074°02'1115.4
2018-Jul-11 20:18N 40°29' W 074°05'828.5
2018-Jul-11 20:01N 40°37' W 074°03'613.0
2018-Jul-11 19:31N 40°43' W 074°01'3 4.9
2018-Jul-11 18:57N 40°46' W 074°01'1 0.1
2018-Jul-11 14:47N 40°46' W 074°01'2 5.9
2018-Jul-11 14:30N 40°45' W 074°01'815.5
2018-Jul-11 14:00N 40°37' W 074°03'5 6.3
2018-Jul-11 13:12N 40°32' W 074°03'630.0
2018-Jul-11 13:00N 40°38' W 074°03'5 9.8
2018-Jul-11 12:31N 40°43' W 074°02'5 9.8
2018-Jul-11 12:00N 40°38' W 074°03'911.7
2018-Jul-11 11:12N 40°29' W 074°04'630.3
2018-Jul-11 11:00N 40°34' W 074°04'815.6
2018-Jul-11 10:31N 40°42' W 074°01'1121.5
2018-Jul-11 10:00N 40°31' W 074°04'1 0.1
2018-Jul-10 21:58N 40°31' W 074°03'  
Track history (hours):
 
Tides and Currents Weather Stations Pressure Air Temp Water Temp Dewpoint Dewpoint Depression Visibility Wind Speed Wind Dir Waves Ship Positions

Betsy Ross

Owner: Port Imperial Ferry Corporation, Weehawken, NJ. More information available from US FCC via Universal Licensing System and Coast Guard Vessel Documentation Center.

Last reported at 2018-Jul-20 21:57 UTC. Time now 2018-Jul-21 03:23 UTC.
Position N 40°32' W 074°03'.

Length 33 m; draft 2 m.

Type: Passenger vessel. MMSI: 367752090.

Date/timePositionNaut miles runAvg speedWind from/ knotsBaromVisibWave heightAir tempDewpointWater temp
2018-Jul-20 21:57N 40°32' W 074°03'1124.1
2018-Jul-20 21:31N 40°42' W 074°00'4 8.1
2018-Jul-20 21:00N 40°39' W 074°03'7 9.1
2018-Jul-20 20:14N 40°31' W 074°04'627.8
2018-Jul-20 20:01N 40°37' W 074°03'611.5
2018-Jul-20 19:31N 40°43' W 074°01'0 1.0
2018-Jul-20 19:01N 40°43' W 074°01'1211.6
2018-Jul-20 17:59N 40°31' W 074°04'1224.2
2018-Jul-20 17:30N 40°42' W 074°00'3 5.3
2018-Jul-20 16:51N 40°46' W 074°00'1 2.0
2018-Jul-20 16:30N 40°46' W 074°01'0 0.0
2018-Jul-20 16:00N 40°46' W 074°01'0 0.0
2018-Jul-20 15:27N 40°46' W 074°01'0 0.0
2018-Jul-20 14:58N 40°46' W 074°01'1 1.6
2018-Jul-20 14:30N 40°46' W 074°00'715.0
2018-Jul-20 14:00N 40°38' W 074°03'7 8.1
2018-Jul-20 13:10N 40°32' W 074°03'529.7
2018-Jul-20 13:00N 40°36' W 074°03'815.4
2018-Jul-20 12:31N 40°44' W 074°01'612.4
2018-Jul-20 12:01N 40°38' W 074°03'1216.6
2018-Jul-20 11:18N 40°26' W 074°05'725.8
2018-Jul-20 11:00N 40°33' W 074°02'918.3
2018-Jul-20 10:30N 40°42' W 074°00'1122.2
2018-Jul-20 10:00N 40°31' W 074°04'1 0.1
2018-Jul-19 21:55N 40°33' W 074°03'1023.5
2018-Jul-19 21:30N 40°42' W 074°00'4 7.8
2018-Jul-19 21:01N 40°39' W 074°03'1012.9
2018-Jul-19 20:16N 40°30' W 074°04'728.4
2018-Jul-19 20:00N 40°37' W 074°03'612.5
2018-Jul-19 19:30N 40°43' W 074°01'3 6.6
2018-Jul-19 19:00N 40°46' W 074°01'0 0.0
2018-Jul-19 18:28N 40°46' W 074°01'0 0.0
2018-Jul-19 18:00N 40°46' W 074°01'0 0.0
2018-Jul-19 17:30N 40°46' W 074°01'0 0.0
2018-Jul-19 17:00N 40°46' W 074°01'0 0.0
2018-Jul-19 16:27N 40°46' W 074°01'0 0.0
2018-Jul-19 16:00N 40°46' W 074°01'0 0.0
2018-Jul-19 15:30N 40°46' W 074°01'0 0.0
2018-Jul-19 14:59N 40°46' W 074°01'2 3.9
2018-Jul-19 14:31N 40°44' W 074°01'13 9.5
2018-Jul-19 13:10N 40°32' W 074°03'530.0
2018-Jul-19 13:00N 40°37' W 074°03'612.8
2018-Jul-19 12:31N 40°43' W 074°01'611.2
2018-Jul-19 12:01N 40°38' W 074°03'6 6.4
2018-Jul-19 11:04N 40°32' W 074°03'230.0
2018-Jul-19 11:00N 40°34' W 074°03'917.4
2018-Jul-19 10:31N 40°42' W 074°00'10 0.8
2018-Jul-18 21:55N 40°32' W 074°03'1024.6
2018-Jul-18 21:30N 40°42' W 074°00'4 7.9
2018-Jul-18 21:01N 40°39' W 074°03'7 7.8
2018-Jul-18 20:09N 40°32' W 074°03'429.4
2018-Jul-18 20:01N 40°36' W 074°03'713.5
2018-Jul-18 19:31N 40°43' W 074°01'3 5.6
2018-Jul-18 18:56N 40°46' W 074°01'0 0.0
2018-Jul-18 18:30N 40°46' W 074°01'0 0.0
2018-Jul-18 17:59N 40°46' W 074°01'0 0.0
2018-Jul-18 17:30N 40°46' W 074°01'0 0.0
2018-Jul-18 17:00N 40°46' W 074°01'0 0.0
2018-Jul-18 16:29N 40°46' W 074°01'0 0.0
2018-Jul-18 16:00N 40°46' W 074°01'0 0.0
2018-Jul-18 15:29N 40°46' W 074°01'0 0.0
2018-Jul-18 15:00N 40°46' W 074°01'0 0.0
2018-Jul-18 14:30N 40°46' W 074°01'0 0.0
2018-Jul-18 13:30N 40°46' W 074°01'3 6.7
2018-Jul-18 13:00N 40°43' W 074°01'1 2.6
2018-Jul-18 12:31N 40°44' W 074°01'713.2
2018-Jul-18 12:00N 40°38' W 074°03'5 5.5
2018-Jul-18 11:02N 40°32' W 074°03'1019.4
2018-Jul-18 10:30N 40°42' W 074°00'12 1.0
2018-Jul-17 21:59N 40°31' W 074°04'1225.1
2018-Jul-17 21:31N 40°42' W 074°00'4 7.7
2018-Jul-17 21:00N 40°39' W 074°03'8 9.3
2018-Jul-17 20:11N 40°31' W 074°03'529.8
2018-Jul-17 20:00N 40°37' W 074°03'713.2
2018-Jul-17 19:30N 40°43' W 074°01'3 5.0
2018-Jul-17 18:56N 40°46' W 074°00'0 0.9
2018-Jul-17 18:29N 40°46' W 074°01'0 0.0
2018-Jul-17 15:50N 40°46' W 074°01'0 0.0
2018-Jul-17 15:16N 40°46' W 074°01'0 0.0
2018-Jul-17 14:57N 40°46' W 074°01'0 0.0
2018-Jul-17 14:29N 40°46' W 074°01'0 0.0
2018-Jul-17 14:00N 40°46' W 074°01'0 0.0
2018-Jul-17 13:28N 40°46' W 074°01'4 7.7
2018-Jul-17 13:01N 40°43' W 074°02'1 1.9
2018-Jul-17 12:31N 40°44' W 074°01'611.5
2018-Jul-17 12:01N 40°38' W 074°03'6 6.5
2018-Jul-17 11:03N 40°32' W 074°03'129.9
2018-Jul-17 11:01N 40°33' W 074°02'918.6
2018-Jul-17 10:31N 40°42' W 074°00'13 1.1
2018-Jul-16 22:07N 40°29' W 074°04'328.0
2018-Jul-16 22:00N 40°32' W 074°04'1021.0
2018-Jul-16 21:31N 40°42' W 074°00'4 7.4
2018-Jul-16 21:00N 40°39' W 074°03'7 8.6
2018-Jul-16 20:10N 40°32' W 074°03'529.9
2018-Jul-16 20:01N 40°37' W 074°03'713.2
2018-Jul-16 19:30N 40°43' W 074°01'3 5.4
2018-Jul-16 19:00N 40°46' W 074°00'1 1.1
2018-Jul-16 18:30N 40°46' W 074°01'0 0.0
2018-Jul-16 18:00N 40°46' W 074°01'0 0.0
2018-Jul-16 17:29N 40°46' W 074°01'0 0.0
2018-Jul-16 16:59N 40°46' W 074°01'0 0.0
2018-Jul-16 16:30N 40°46' W 074°01'0 0.0
2018-Jul-16 16:00N 40°46' W 074°01'1 1.4
2018-Jul-16 15:28N 40°46' W 074°00'1 1.6
2018-Jul-16 15:00N 40°46' W 074°01'3 6.1
2018-Jul-16 14:31N 40°43' W 074°02'713.0
2018-Jul-16 14:00N 40°37' W 074°03'5 6.8
2018-Jul-16 13:16N 40°32' W 074°04'727.6
2018-Jul-16 13:01N 40°39' W 074°03'4 8.3
2018-Jul-16 12:31N 40°43' W 074°02'5 9.5
2018-Jul-16 12:00N 40°38' W 074°03'6 6.6
2018-Jul-16 11:03N 40°32' W 074°03'128.6
2018-Jul-16 11:00N 40°33' W 074°02'918.4
2018-Jul-16 10:31N 40°42' W 074°00'  
2018-Jul-13 22:00N 40°31' W 074°04'1224.1
2018-Jul-13 21:30N 40°42' W 074°00'510.1
2018-Jul-13 21:00N 40°38' W 074°03'6 8.1
2018-Jul-13 20:13N 40°31' W 074°03'629.7
2018-Jul-13 20:00N 40°38' W 074°03'611.5
2018-Jul-13 19:31N 40°43' W 074°01'0 0.6
2018-Jul-13 19:01N 40°43' W 074°01'1312.6
2018-Jul-13 17:58N 40°30' W 074°04'1327.0
2018-Jul-13 17:30N 40°42' W 074°00'4 4.1
2018-Jul-13 16:38N 40°46' W 074°01'1 4.1
2018-Jul-13 16:30N 40°46' W 074°01'0 0.0
2018-Jul-13 16:00N 40°46' W 074°01'0 0.0
2018-Jul-13 15:30N 40°46' W 074°01'0 0.0
2018-Jul-13 14:58N 40°46' W 074°01'8 8.8
2018-Jul-13 14:00N 40°38' W 074°03'914.3
2018-Jul-13 13:21N 40°29' W 074°04'1029.0
2018-Jul-13 13:01N 40°38' W 074°03'815.2
2018-Jul-13 12:31N 40°46' W 074°00'714.3
2018-Jul-13 12:01N 40°39' W 074°02'1011.6
2018-Jul-13 11:09N 40°29' W 074°05'430.3
2018-Jul-13 11:00N 40°33' W 074°04'1019.2
2018-Jul-13 10:31N 40°42' W 074°01'1121.7
2018-Jul-13 10:01N 40°32' W 074°04'4 0.3
2018-Jul-12 22:08N 40°28' W 074°04'427.8
2018-Jul-12 22:00N 40°32' W 074°04'1122.3
2018-Jul-12 21:30N 40°42' W 074°00'3 6.9
2018-Jul-12 21:01N 40°39' W 074°03'1115.3
2018-Jul-12 20:16N 40°28' W 074°05'829.6
2018-Jul-12 20:01N 40°36' W 074°03'714.7
2018-Jul-12 19:30N 40°43' W 074°01'3 4.5
2018-Jul-12 18:55N 40°46' W 074°00'1 1.2
2018-Jul-12 18:27N 40°46' W 074°01'0 0.0
2018-Jul-12 17:59N 40°46' W 074°01'0 0.0
2018-Jul-12 17:30N 40°46' W 074°01'0 0.0
2018-Jul-12 16:59N 40°46' W 074°01'0 0.0
2018-Jul-12 16:30N 40°46' W 074°01'0 0.0
2018-Jul-12 16:00N 40°46' W 074°01'0 0.0
2018-Jul-12 15:30N 40°46' W 074°01'0 0.0
2018-Jul-12 15:00N 40°46' W 074°01'1 3.0
2018-Jul-12 14:31N 40°45' W 074°01'815.1
2018-Jul-12 14:00N 40°37' W 074°03'812.3
2018-Jul-12 13:19N 40°29' W 074°04'929.1
2018-Jul-12 13:01N 40°38' W 074°03'510.0
2018-Jul-12 12:31N 40°43' W 074°02'5 9.1
2018-Jul-12 12:00N 40°38' W 074°03'6 6.7
2018-Jul-12 11:06N 40°32' W 074°03'328.8
2018-Jul-12 11:01N 40°35' W 074°03'815.0
2018-Jul-12 10:30N 40°42' W 074°00'1223.5
2018-Jul-12 10:00N 40°31' W 074°03'2 0.1
2018-Jul-11 21:57N 40°32' W 074°04'1023.4
2018-Jul-11 21:30N 40°42' W 074°00'3 6.2
2018-Jul-11 21:00N 40°39' W 074°02'1115.4
2018-Jul-11 20:18N 40°29' W 074°05'828.5
2018-Jul-11 20:01N 40°37' W 074°03'613.0
2018-Jul-11 19:31N 40°43' W 074°01'3 4.9
2018-Jul-11 18:57N 40°46' W 074°01'1 0.1
2018-Jul-11 14:47N 40°46' W 074°01'2 5.9
2018-Jul-11 14:30N 40°45' W 074°01'815.5
2018-Jul-11 14:00N 40°37' W 074°03'5 6.3
2018-Jul-11 13:12N 40°32' W 074°03'630.0
2018-Jul-11 13:00N 40°38' W 074°03'5 9.8
2018-Jul-11 12:31N 40°43' W 074°02'5 9.8
2018-Jul-11 12:00N 40°38' W 074°03'911.7
2018-Jul-11 11:12N 40°29' W 074°04'630.3
2018-Jul-11 11:00N 40°34' W 074°04'815.6
2018-Jul-11 10:31N 40°42' W 074°01'1121.5
2018-Jul-11 10:00N 40°31' W 074°04'1 0.1
2018-Jul-10 21:58N 40°31' W 074°03'  

Dump ship's entire track history